sensor_id;sensor_type;location;lat;lon;timestamp;P1;durP1;ratioP1;P2;durP2;ratioP2
29774;SDS011;16676;51.202;6.774;2022-09-13T00:00:13;4.35;;;3.20;;
29774;SDS011;16676;51.202;6.774;2022-09-13T00:04:15;3.70;;;2.60;;
29774;SDS011;16676;51.202;6.774;2022-09-13T00:08:17;8.50;;;3.08;;
29774;SDS011;16676;51.202;6.774;2022-09-13T00:12:21;4.40;;;3.15;;
29774;SDS011;16676;51.202;6.774;2022-09-13T00:16:23;4.88;;;3.05;;
29774;SDS011;16676;51.202;6.774;2022-09-13T00:20:27;4.05;;;2.90;;
29774;SDS011;16676;51.202;6.774;2022-09-13T00:24:29;4.90;;;3.08;;
29774;SDS011;16676;51.202;6.774;2022-09-13T00:28:32;5.65;;;2.67;;
29774;SDS011;16676;51.202;6.774;2022-09-13T00:32:34;6.20;;;2.90;;
29774;SDS011;16676;51.202;6.774;2022-09-13T00:36:36;4.65;;;2.88;;
29774;SDS011;16676;51.202;6.774;2022-09-13T00:40:38;6.03;;;3.55;;
29774;SDS011;16676;51.202;6.774;2022-09-13T00:44:46;4.60;;;3.33;;
29774;SDS011;16676;51.202;6.774;2022-09-13T00:48:55;5.05;;;2.85;;
29774;SDS011;16676;51.202;6.774;2022-09-13T00:57:05;4.00;;;2.88;;
29774;SDS011;16676;51.202;6.774;2022-09-13T01:01:11;5.30;;;3.08;;
29774;SDS011;16676;51.202;6.774;2022-09-13T01:05:15;5.25;;;3.63;;
29774;SDS011;16676;51.202;6.774;2022-09-13T01:09:19;5.03;;;3.60;;
29774;SDS011;16676;51.202;6.774;2022-09-13T01:13:22;5.38;;;3.22;;
29774;SDS011;16676;51.202;6.774;2022-09-13T01:17:28;4.80;;;3.20;;
29774;SDS011;16676;51.202;6.774;2022-09-13T01:26:12;6.05;;;3.38;;
29774;SDS011;16676;51.202;6.774;2022-09-13T01:30:37;6.25;;;3.17;;
29774;SDS011;16676;51.202;6.774;2022-09-13T01:34:45;4.90;;;3.47;;
29774;SDS011;16676;51.202;6.774;2022-09-13T01:38:56;3.30;;;2.85;;
29774;SDS011;16676;51.202;6.774;2022-09-13T01:43:06;5.32;;;3.17;;
29774;SDS011;16676;51.202;6.774;2022-09-13T01:47:23;6.35;;;3.80;;
29774;SDS011;16676;51.202;6.774;2022-09-13T01:51:28;4.93;;;3.30;;
29774;SDS011;16676;51.202;6.774;2022-09-13T01:55:37;4.30;;;3.25;;
29774;SDS011;16676;51.202;6.774;2022-09-13T01:59:46;6.22;;;3.53;;
29774;SDS011;16676;51.202;6.774;2022-09-13T02:07:59;6.43;;;3.65;;
29774;SDS011;16676;51.202;6.774;2022-09-13T02:12:06;6.38;;;3.75;;
29774;SDS011;16676;51.202;6.774;2022-09-13T02:16:14;6.20;;;3.63;;
29774;SDS011;16676;51.202;6.774;2022-09-13T02:20:23;5.85;;;3.58;;
29774;SDS011;16676;51.202;6.774;2022-09-13T02:24:29;6.63;;;3.70;;
29774;SDS011;16676;51.202;6.774;2022-09-13T02:28:34;6.93;;;4.00;;
29774;SDS011;16676;51.202;6.774;2022-09-13T02:32:40;6.63;;;3.20;;
29774;SDS011;16676;51.202;6.774;2022-09-13T02:36:47;6.13;;;3.42;;
29774;SDS011;16676;51.202;6.774;2022-09-13T02:40:55;4.93;;;3.40;;
29774;SDS011;16676;51.202;6.774;2022-09-13T02:45:00;6.30;;;3.10;;
29774;SDS011;16676;51.202;6.774;2022-09-13T02:49:04;6.18;;;3.22;;
29774;SDS011;16676;51.202;6.774;2022-09-13T02:53:16;5.75;;;3.72;;
29774;SDS011;16676;51.202;6.774;2022-09-13T02:57:27;8.45;;;3.47;;
29774;SDS011;16676;51.202;6.774;2022-09-13T03:01:32;6.63;;;3.70;;
29774;SDS011;16676;51.202;6.774;2022-09-13T03:05:35;6.20;;;3.90;;
29774;SDS011;16676;51.202;6.774;2022-09-13T03:09:41;4.85;;;3.30;;
29774;SDS011;16676;51.202;6.774;2022-09-13T03:14:00;4.55;;;3.22;;
29774;SDS011;16676;51.202;6.774;2022-09-13T03:18:22;5.43;;;3.00;;
29774;SDS011;16676;51.202;6.774;2022-09-13T03:22:50;4.93;;;3.40;;
29774;SDS011;16676;51.202;6.774;2022-09-13T03:27:14;6.38;;;3.30;;
29774;SDS011;16676;51.202;6.774;2022-09-13T03:31:26;5.95;;;3.63;;
29774;SDS011;16676;51.202;6.774;2022-09-13T03:35:36;4.53;;;3.15;;
29774;SDS011;16676;51.202;6.774;2022-09-13T03:40:03;4.35;;;3.10;;
29774;SDS011;16676;51.202;6.774;2022-09-13T03:44:30;4.57;;;3.20;;
29774;SDS011;16676;51.202;6.774;2022-09-13T03:48:53;5.05;;;3.45;;
29774;SDS011;16676;51.202;6.774;2022-09-13T03:53:06;4.10;;;2.95;;
29774;SDS011;16676;51.202;6.774;2022-09-13T03:57:11;3.55;;;3.00;;
29774;SDS011;16676;51.202;6.774;2022-09-13T04:01:17;5.90;;;3.85;;
29774;SDS011;16676;51.202;6.774;2022-09-13T04:05:20;5.40;;;3.25;;
29774;SDS011;16676;51.202;6.774;2022-09-13T04:09:23;4.97;;;3.55;;
29774;SDS011;16676;51.202;6.774;2022-09-13T04:13:25;4.85;;;3.60;;
29774;SDS011;16676;51.202;6.774;2022-09-13T04:17:28;5.57;;;3.80;;
29774;SDS011;16676;51.202;6.774;2022-09-13T04:21:30;5.63;;;3.72;;
29774;SDS011;16676;51.202;6.774;2022-09-13T04:25:32;6.55;;;3.83;;
29774;SDS011;16676;51.202;6.774;2022-09-13T04:29:34;8.75;;;4.65;;
29774;SDS011;16676;51.202;6.774;2022-09-13T04:33:37;7.70;;;3.80;;
29774;SDS011;16676;51.202;6.774;2022-09-13T04:37:40;6.35;;;3.85;;
29774;SDS011;16676;51.202;6.774;2022-09-13T04:41:43;8.52;;;4.00;;
29774;SDS011;16676;51.202;6.774;2022-09-13T04:45:47;5.53;;;3.88;;
29774;SDS011;16676;51.202;6.774;2022-09-13T04:49:50;6.80;;;3.85;;
29774;SDS011;16676;51.202;6.774;2022-09-13T04:53:53;11.98;;;3.90;;
29774;SDS011;16676;51.202;6.774;2022-09-13T04:57:56;7.15;;;3.97;;
29774;SDS011;16676;51.202;6.774;2022-09-13T05:01:58;8.73;;;4.28;;
29774;SDS011;16676;51.202;6.774;2022-09-13T05:06:02;8.80;;;4.22;;
29774;SDS011;16676;51.202;6.774;2022-09-13T05:10:05;7.05;;;4.80;;
29774;SDS011;16676;51.202;6.774;2022-09-13T05:14:08;6.40;;;4.60;;
29774;SDS011;16676;51.202;6.774;2022-09-13T05:18:11;8.10;;;4.50;;
29774;SDS011;16676;51.202;6.774;2022-09-13T05:22:15;6.68;;;4.68;;
29774;SDS011;16676;51.202;6.774;2022-09-13T05:26:17;8.57;;;4.57;;
29774;SDS011;16676;51.202;6.774;2022-09-13T05:30:19;7.20;;;4.63;;
29774;SDS011;16676;51.202;6.774;2022-09-13T05:34:21;6.50;;;4.68;;
29774;SDS011;16676;51.202;6.774;2022-09-13T05:38:24;9.18;;;4.45;;
29774;SDS011;16676;51.202;6.774;2022-09-13T05:42:26;7.88;;;4.22;;
29774;SDS011;16676;51.202;6.774;2022-09-13T05:46:28;5.32;;;4.28;;
29774;SDS011;16676;51.202;6.774;2022-09-13T05:50:30;7.75;;;4.40;;
29774;SDS011;16676;51.202;6.774;2022-09-13T05:54:34;6.30;;;4.10;;
29774;SDS011;16676;51.202;6.774;2022-09-13T05:58:37;7.55;;;4.40;;
29774;SDS011;16676;51.202;6.774;2022-09-13T06:02:39;8.63;;;4.43;;
29774;SDS011;16676;51.202;6.774;2022-09-13T06:06:42;9.77;;;4.65;;
29774;SDS011;16676;51.202;6.774;2022-09-13T06:10:53;8.43;;;4.88;;
29774;SDS011;16676;51.202;6.774;2022-09-13T06:14:56;8.35;;;4.18;;
29774;SDS011;16676;51.202;6.774;2022-09-13T06:18:58;7.45;;;3.60;;
29774;SDS011;16676;51.202;6.774;2022-09-13T06:23:00;9.57;;;4.40;;
29774;SDS011;16676;51.202;6.774;2022-09-13T06:27:03;7.90;;;4.30;;
29774;SDS011;16676;51.202;6.774;2022-09-13T06:31:06;7.07;;;3.97;;
29774;SDS011;16676;51.202;6.774;2022-09-13T06:35:09;13.05;;;4.10;;
29774;SDS011;16676;51.202;6.774;2022-09-13T06:39:11;5.18;;;3.75;;
29774;SDS011;16676;51.202;6.774;2022-09-13T06:43:14;8.15;;;4.60;;
29774;SDS011;16676;51.202;6.774;2022-09-13T06:47:16;7.07;;;4.22;;
29774;SDS011;16676;51.202;6.774;2022-09-13T06:51:19;5.60;;;4.25;;
29774;SDS011;16676;51.202;6.774;2022-09-13T06:55:22;6.85;;;4.13;;
29774;SDS011;16676;51.202;6.774;2022-09-13T06:59:25;10.57;;;4.82;;
29774;SDS011;16676;51.202;6.774;2022-09-13T07:03:27;5.07;;;3.80;;
29774;SDS011;16676;51.202;6.774;2022-09-13T07:07:29;9.07;;;4.32;;
29774;SDS011;16676;51.202;6.774;2022-09-13T07:11:32;6.15;;;4.00;;
29774;SDS011;16676;51.202;6.774;2022-09-13T07:15:37;6.18;;;3.78;;
29774;SDS011;16676;51.202;6.774;2022-09-13T07:19:39;9.45;;;3.92;;
29774;SDS011;16676;51.202;6.774;2022-09-13T07:23:41;7.18;;;3.95;;
29774;SDS011;16676;51.202;6.774;2022-09-13T07:27:43;7.47;;;4.07;;
29774;SDS011;16676;51.202;6.774;2022-09-13T07:31:46;8.52;;;4.00;;
29774;SDS011;16676;51.202;6.774;2022-09-13T07:35:53;9.63;;;3.55;;
29774;SDS011;16676;51.202;6.774;2022-09-13T07:39:56;11.13;;;4.50;;
29774;SDS011;16676;51.202;6.774;2022-09-13T07:43:58;6.35;;;3.65;;
29774;SDS011;16676;51.202;6.774;2022-09-13T07:48:03;6.72;;;3.90;;
29774;SDS011;16676;51.202;6.774;2022-09-13T07:52:05;6.13;;;3.90;;
29774;SDS011;16676;51.202;6.774;2022-09-13T07:56:07;7.38;;;3.70;;
29774;SDS011;16676;51.202;6.774;2022-09-13T08:00:11;5.10;;;3.30;;
29774;SDS011;16676;51.202;6.774;2022-09-13T08:04:16;8.95;;;3.58;;
29774;SDS011;16676;51.202;6.774;2022-09-13T08:08:19;6.95;;;3.70;;
29774;SDS011;16676;51.202;6.774;2022-09-13T08:12:21;10.38;;;3.35;;
29774;SDS011;16676;51.202;6.774;2022-09-13T08:16:24;6.63;;;3.60;;
29774;SDS011;16676;51.202;6.774;2022-09-13T08:20:28;6.05;;;3.72;;
29774;SDS011;16676;51.202;6.774;2022-09-13T08:24:30;9.88;;;3.58;;
29774;SDS011;16676;51.202;6.774;2022-09-13T08:28:32;7.80;;;3.78;;
29774;SDS011;16676;51.202;6.774;2022-09-13T08:32:35;7.43;;;4.03;;
29774;SDS011;16676;51.202;6.774;2022-09-13T08:36:38;9.27;;;3.83;;
29774;SDS011;16676;51.202;6.774;2022-09-13T08:40:42;10.10;;;3.67;;
29774;SDS011;16676;51.202;6.774;2022-09-13T08:44:48;8.10;;;3.47;;
29774;SDS011;16676;51.202;6.774;2022-09-13T08:48:54;9.20;;;3.10;;
29774;SDS011;16676;51.202;6.774;2022-09-13T08:57:24;7.95;;;2.90;;
29774;SDS011;16676;51.202;6.774;2022-09-13T09:01:34;12.10;;;3.67;;
29774;SDS011;16676;51.202;6.774;2022-09-13T09:05:46;5.40;;;2.90;;
29774;SDS011;16676;51.202;6.774;2022-09-13T09:09:52;7.80;;;3.20;;
29774;SDS011;16676;51.202;6.774;2022-09-13T09:13:58;5.85;;;2.95;;
29774;SDS011;16676;51.202;6.774;2022-09-13T09:18:06;4.35;;;2.78;;
29774;SDS011;16676;51.202;6.774;2022-09-13T09:26:19;8.13;;;3.40;;
29774;SDS011;16676;51.202;6.774;2022-09-13T09:30:23;4.97;;;2.80;;
29774;SDS011;16676;51.202;6.774;2022-09-13T09:34:41;7.82;;;3.10;;
29774;SDS011;16676;51.202;6.774;2022-09-13T09:38:51;7.13;;;2.97;;
29774;SDS011;16676;51.202;6.774;2022-09-13T09:42:55;6.30;;;3.38;;
29774;SDS011;16676;51.202;6.774;2022-09-13T09:46:58;10.55;;;3.42;;
29774;SDS011;16676;51.202;6.774;2022-09-13T09:51:03;9.55;;;3.40;;
29774;SDS011;16676;51.202;6.774;2022-09-13T09:55:11;11.18;;;3.95;;
29774;SDS011;16676;51.202;6.774;2022-09-13T09:59:28;8.75;;;3.00;;
29774;SDS011;16676;51.202;6.774;2022-09-13T10:03:32;7.55;;;2.78;;
29774;SDS011;16676;51.202;6.774;2022-09-13T10:07:35;4.43;;;2.70;;
29774;SDS011;16676;51.202;6.774;2022-09-13T10:11:41;7.80;;;2.20;;
29774;SDS011;16676;51.202;6.774;2022-09-13T10:15:56;6.07;;;2.67;;
29774;SDS011;16676;51.202;6.774;2022-09-13T10:20:01;7.70;;;2.83;;
29774;SDS011;16676;51.202;6.774;2022-09-13T10:24:19;5.97;;;2.70;;
29774;SDS011;16676;51.202;6.774;2022-09-13T10:28:22;9.05;;;3.15;;
29774;SDS011;16676;51.202;6.774;2022-09-13T10:32:27;8.65;;;3.22;;
29774;SDS011;16676;51.202;6.774;2022-09-13T10:36:30;6.55;;;4.05;;
29774;SDS011;16676;51.202;6.774;2022-09-13T10:40:34;10.07;;;4.25;;
29774;SDS011;16676;51.202;6.774;2022-09-13T10:44:39;7.38;;;3.60;;
29774;SDS011;16676;51.202;6.774;2022-09-13T10:48:46;6.47;;;3.03;;
29774;SDS011;16676;51.202;6.774;2022-09-13T10:52:55;4.57;;;2.83;;
29774;SDS011;16676;51.202;6.774;2022-09-13T10:56:58;8.57;;;3.20;;
29774;SDS011;16676;51.202;6.774;2022-09-13T11:01:12;8.15;;;2.70;;
29774;SDS011;16676;51.202;6.774;2022-09-13T11:05:26;5.55;;;3.15;;
29774;SDS011;16676;51.202;6.774;2022-09-13T11:09:37;6.85;;;2.80;;
29774;SDS011;16676;51.202;6.774;2022-09-13T11:13:51;5.75;;;2.92;;
29774;SDS011;16676;51.202;6.774;2022-09-13T11:22:35;5.93;;;3.03;;
29774;SDS011;16676;51.202;6.774;2022-09-13T11:26:54;8.70;;;2.65;;
29774;SDS011;16676;51.202;6.774;2022-09-13T11:31:08;5.90;;;2.95;;
29774;SDS011;16676;51.202;6.774;2022-09-13T11:35:27;6.43;;;3.60;;
29774;SDS011;16676;51.202;6.774;2022-09-13T11:39:40;3.90;;;2.50;;
29774;SDS011;16676;51.202;6.774;2022-09-13T11:43:53;6.95;;;2.70;;
29774;SDS011;16676;51.202;6.774;2022-09-13T11:48:19;6.25;;;3.00;;
29774;SDS011;16676;51.202;6.774;2022-09-13T11:52:40;7.35;;;3.60;;
29774;SDS011;16676;51.202;6.774;2022-09-13T11:56:53;12.85;;;4.50;;
29774;SDS011;16676;51.202;6.774;2022-09-13T12:00:58;10.10;;;3.63;;
29774;SDS011;16676;51.202;6.774;2022-09-13T12:05:03;9.02;;;3.35;;
29774;SDS011;16676;51.202;6.774;2022-09-13T12:09:10;8.23;;;3.10;;
29774;SDS011;16676;51.202;6.774;2022-09-13T12:13:18;9.60;;;2.80;;
29774;SDS011;16676;51.202;6.774;2022-09-13T12:17:24;5.18;;;2.92;;
29774;SDS011;16676;51.202;6.774;2022-09-13T12:21:30;8.70;;;4.20;;
29774;SDS011;16676;51.202;6.774;2022-09-13T12:25:38;8.30;;;3.90;;
29774;SDS011;16676;51.202;6.774;2022-09-13T12:29:49;8.75;;;3.28;;
29774;SDS011;16676;51.202;6.774;2022-09-13T12:33:53;4.63;;;3.10;;
29774;SDS011;16676;51.202;6.774;2022-09-13T12:42:36;6.53;;;3.40;;
29774;SDS011;16676;51.202;6.774;2022-09-13T12:47:15;10.15;;;3.80;;
29774;SDS011;16676;51.202;6.774;2022-09-13T12:51:35;9.85;;;3.72;;
29774;SDS011;16676;51.202;6.774;2022-09-13T12:55:51;5.95;;;2.95;;
29774;SDS011;16676;51.202;6.774;2022-09-13T13:00:07;6.13;;;3.30;;
29774;SDS011;16676;51.202;6.774;2022-09-13T13:04:14;4.93;;;2.67;;
29774;SDS011;16676;51.202;6.774;2022-09-13T13:08:24;5.95;;;2.95;;
29774;SDS011;16676;51.202;6.774;2022-09-13T13:12:30;5.55;;;3.00;;
29774;SDS011;16676;51.202;6.774;2022-09-13T13:16:34;3.72;;;2.30;;
29774;SDS011;16676;51.202;6.774;2022-09-13T13:21:03;3.47;;;2.40;;
29774;SDS011;16676;51.202;6.774;2022-09-13T13:25:34;7.13;;;3.30;;
29774;SDS011;16676;51.202;6.774;2022-09-13T13:29:38;10.18;;;3.45;;
29774;SDS011;16676;51.202;6.774;2022-09-13T13:33:46;5.38;;;3.00;;
29774;SDS011;16676;51.202;6.774;2022-09-13T13:37:51;6.57;;;3.28;;
29774;SDS011;16676;51.202;6.774;2022-09-13T13:41:54;6.53;;;2.78;;
29774;SDS011;16676;51.202;6.774;2022-09-13T13:50:31;4.70;;;2.22;;
29774;SDS011;16676;51.202;6.774;2022-09-13T13:54:57;5.03;;;2.22;;
29774;SDS011;16676;51.202;6.774;2022-09-13T13:59:06;5.03;;;2.20;;
29774;SDS011;16676;51.202;6.774;2022-09-13T14:03:16;4.55;;;2.75;;
29774;SDS011;16676;51.202;6.774;2022-09-13T14:07:32;5.72;;;2.53;;
29774;SDS011;16676;51.202;6.774;2022-09-13T14:11:56;8.07;;;2.70;;
29774;SDS011;16676;51.202;6.774;2022-09-13T14:16:08;6.55;;;2.78;;
29774;SDS011;16676;51.202;6.774;2022-09-13T14:20:17;5.55;;;2.30;;
29774;SDS011;16676;51.202;6.774;2022-09-13T14:24:22;4.07;;;2.45;;
29774;SDS011;16676;51.202;6.774;2022-09-13T14:28:27;6.22;;;2.17;;
29774;SDS011;16676;51.202;6.774;2022-09-13T14:32:31;6.00;;;2.60;;
29774;SDS011;16676;51.202;6.774;2022-09-13T14:36:49;4.10;;;2.58;;
29774;SDS011;16676;51.202;6.774;2022-09-13T14:40:57;4.55;;;2.67;;
29774;SDS011;16676;51.202;6.774;2022-09-13T14:45:02;3.92;;;2.20;;
29774;SDS011;16676;51.202;6.774;2022-09-13T14:49:05;4.30;;;2.10;;
29774;SDS011;16676;51.202;6.774;2022-09-13T14:53:11;4.43;;;2.40;;
29774;SDS011;16676;51.202;6.774;2022-09-13T14:57:18;5.57;;;2.25;;
29774;SDS011;16676;51.202;6.774;2022-09-13T15:01:30;8.43;;;2.53;;
29774;SDS011;16676;51.202;6.774;2022-09-13T15:05:33;7.70;;;2.30;;
29774;SDS011;16676;51.202;6.774;2022-09-13T15:09:37;6.90;;;2.45;;
29774;SDS011;16676;51.202;6.774;2022-09-13T15:13:39;4.70;;;2.33;;
29774;SDS011;16676;51.202;6.774;2022-09-13T15:17:56;3.90;;;2.13;;
29774;SDS011;16676;51.202;6.774;2022-09-13T15:22:03;4.53;;;1.85;;
29774;SDS011;16676;51.202;6.774;2022-09-13T15:26:12;4.45;;;2.40;;
29774;SDS011;16676;51.202;6.774;2022-09-13T15:30:21;7.18;;;2.50;;
29774;SDS011;16676;51.202;6.774;2022-09-13T15:34:27;6.03;;;2.70;;
29774;SDS011;16676;51.202;6.774;2022-09-13T15:38:30;6.90;;;2.92;;
29774;SDS011;16676;51.202;6.774;2022-09-13T15:42:32;3.85;;;2.00;;
29774;SDS011;16676;51.202;6.774;2022-09-13T15:46:36;3.80;;;2.15;;
29774;SDS011;16676;51.202;6.774;2022-09-13T15:50:47;6.65;;;2.38;;
29774;SDS011;16676;51.202;6.774;2022-09-13T15:55:09;4.20;;;2.47;;
29774;SDS011;16676;51.202;6.774;2022-09-13T15:59:11;6.97;;;2.78;;
29774;SDS011;16676;51.202;6.774;2022-09-13T16:03:14;5.10;;;2.08;;
29774;SDS011;16676;51.202;6.774;2022-09-13T16:07:17;5.97;;;2.65;;
29774;SDS011;16676;51.202;6.774;2022-09-13T16:11:19;5.93;;;2.53;;
29774;SDS011;16676;51.202;6.774;2022-09-13T16:15:21;4.80;;;2.55;;
29774;SDS011;16676;51.202;6.774;2022-09-13T16:19:23;3.67;;;2.90;;
29774;SDS011;16676;51.202;6.774;2022-09-13T16:23:27;6.53;;;2.45;;
29774;SDS011;16676;51.202;6.774;2022-09-13T16:27:29;6.53;;;2.70;;
29774;SDS011;16676;51.202;6.774;2022-09-13T16:31:31;5.20;;;2.63;;
29774;SDS011;16676;51.202;6.774;2022-09-13T16:35:33;6.90;;;3.22;;
29774;SDS011;16676;51.202;6.774;2022-09-13T16:39:37;9.80;;;3.10;;
29774;SDS011;16676;51.202;6.774;2022-09-13T16:43:39;6.85;;;3.47;;
29774;SDS011;16676;51.202;6.774;2022-09-13T16:47:41;9.75;;;3.60;;
29774;SDS011;16676;51.202;6.774;2022-09-13T16:51:43;11.77;;;3.83;;
29774;SDS011;16676;51.202;6.774;2022-09-13T16:55:46;12.38;;;4.95;;
29774;SDS011;16676;51.202;6.774;2022-09-13T16:59:48;5.70;;;3.95;;
29774;SDS011;16676;51.202;6.774;2022-09-13T17:03:52;6.65;;;3.78;;
29774;SDS011;16676;51.202;6.774;2022-09-13T17:07:54;8.68;;;4.32;;
29774;SDS011;16676;51.202;6.774;2022-09-13T17:11:58;8.13;;;4.57;;
29774;SDS011;16676;51.202;6.774;2022-09-13T17:16:00;9.07;;;4.45;;
29774;SDS011;16676;51.202;6.774;2022-09-13T17:20:03;6.00;;;4.90;;
29774;SDS011;16676;51.202;6.774;2022-09-13T17:24:08;11.63;;;4.28;;
29774;SDS011;16676;51.202;6.774;2022-09-13T17:28:12;6.97;;;3.85;;
29774;SDS011;16676;51.202;6.774;2022-09-13T17:32:15;10.90;;;3.92;;
29774;SDS011;16676;51.202;6.774;2022-09-13T17:36:17;7.68;;;3.90;;
29774;SDS011;16676;51.202;6.774;2022-09-13T17:40:20;6.05;;;3.50;;
29774;SDS011;16676;51.202;6.774;2022-09-13T17:44:23;11.82;;;4.50;;
29774;SDS011;16676;51.202;6.774;2022-09-13T17:48:25;13.63;;;3.47;;
29774;SDS011;16676;51.202;6.774;2022-09-13T17:52:27;6.65;;;3.33;;
29774;SDS011;16676;51.202;6.774;2022-09-13T17:56:30;5.22;;;2.90;;
29774;SDS011;16676;51.202;6.774;2022-09-13T18:00:36;6.80;;;3.22;;
29774;SDS011;16676;51.202;6.774;2022-09-13T18:04:38;6.70;;;3.85;;
29774;SDS011;16676;51.202;6.774;2022-09-13T18:08:40;10.63;;;3.70;;
29774;SDS011;16676;51.202;6.774;2022-09-13T18:12:42;8.15;;;3.17;;
29774;SDS011;16676;51.202;6.774;2022-09-13T18:16:46;5.68;;;3.30;;
29774;SDS011;16676;51.202;6.774;2022-09-13T18:20:54;6.95;;;3.75;;
29774;SDS011;16676;51.202;6.774;2022-09-13T18:24:57;9.05;;;3.50;;
29774;SDS011;16676;51.202;6.774;2022-09-13T18:28:59;8.57;;;4.10;;
29774;SDS011;16676;51.202;6.774;2022-09-13T18:33:04;7.47;;;3.60;;
29774;SDS011;16676;51.202;6.774;2022-09-13T18:37:07;7.20;;;3.80;;
29774;SDS011;16676;51.202;6.774;2022-09-13T18:41:09;7.38;;;4.40;;
29774;SDS011;16676;51.202;6.774;2022-09-13T18:45:12;6.18;;;4.50;;
29774;SDS011;16676;51.202;6.774;2022-09-13T18:49:16;8.57;;;4.47;;
29774;SDS011;16676;51.202;6.774;2022-09-13T18:53:18;7.82;;;4.30;;
29774;SDS011;16676;51.202;6.774;2022-09-13T18:57:20;7.18;;;4.20;;
29774;SDS011;16676;51.202;6.774;2022-09-13T19:01:23;7.63;;;4.70;;
29774;SDS011;16676;51.202;6.774;2022-09-13T19:05:28;6.22;;;3.97;;
29774;SDS011;16676;51.202;6.774;2022-09-13T19:09:38;7.72;;;4.13;;
29774;SDS011;16676;51.202;6.774;2022-09-13T19:13:40;6.50;;;3.80;;
29774;SDS011;16676;51.202;6.774;2022-09-13T19:17:42;10.10;;;5.05;;
29774;SDS011;16676;51.202;6.774;2022-09-13T19:21:45;9.90;;;5.55;;
29774;SDS011;16676;51.202;6.774;2022-09-13T19:25:48;9.88;;;5.68;;
29774;SDS011;16676;51.202;6.774;2022-09-13T19:29:50;7.38;;;4.68;;
29774;SDS011;16676;51.202;6.774;2022-09-13T19:33:53;6.45;;;4.53;;
29774;SDS011;16676;51.202;6.774;2022-09-13T19:37:57;9.27;;;4.85;;
29774;SDS011;16676;51.202;6.774;2022-09-13T19:41:59;11.13;;;5.30;;
29774;SDS011;16676;51.202;6.774;2022-09-13T19:46:02;11.60;;;5.20;;
29774;SDS011;16676;51.202;6.774;2022-09-13T19:50:06;8.13;;;5.25;;
29774;SDS011;16676;51.202;6.774;2022-09-13T19:54:10;6.70;;;4.97;;
29774;SDS011;16676;51.202;6.774;2022-09-13T19:58:13;7.97;;;4.95;;
29774;SDS011;16676;51.202;6.774;2022-09-13T20:02:16;6.25;;;4.55;;
29774;SDS011;16676;51.202;6.774;2022-09-13T20:06:18;5.28;;;3.90;;
29774;SDS011;16676;51.202;6.774;2022-09-13T20:10:22;5.95;;;4.18;;
29774;SDS011;16676;51.202;6.774;2022-09-13T20:14:25;6.28;;;4.57;;
29774;SDS011;16676;51.202;6.774;2022-09-13T20:18:28;6.88;;;4.03;;
29774;SDS011;16676;51.202;6.774;2022-09-13T20:22:30;5.63;;;4.18;;
29774;SDS011;16676;51.202;6.774;2022-09-13T20:26:33;6.90;;;4.68;;
29774;SDS011;16676;51.202;6.774;2022-09-13T20:30:36;7.63;;;4.70;;
29774;SDS011;16676;51.202;6.774;2022-09-13T20:34:40;9.75;;;5.18;;
29774;SDS011;16676;51.202;6.774;2022-09-13T20:38:42;7.78;;;4.15;;
29774;SDS011;16676;51.202;6.774;2022-09-13T20:42:49;8.27;;;3.75;;
29774;SDS011;16676;51.202;6.774;2022-09-13T20:46:52;7.93;;;4.30;;
29774;SDS011;16676;51.202;6.774;2022-09-13T20:50:54;6.40;;;4.22;;
29774;SDS011;16676;51.202;6.774;2022-09-13T20:54:57;8.23;;;4.90;;
29774;SDS011;16676;51.202;6.774;2022-09-13T20:59:01;13.10;;;7.00;;
29774;SDS011;16676;51.202;6.774;2022-09-13T21:03:03;12.10;;;6.30;;
29774;SDS011;16676;51.202;6.774;2022-09-13T21:07:09;9.18;;;6.20;;
29774;SDS011;16676;51.202;6.774;2022-09-13T21:11:30;11.05;;;6.32;;
29774;SDS011;16676;51.202;6.774;2022-09-13T21:15:35;11.27;;;6.28;;
29774;SDS011;16676;51.202;6.774;2022-09-13T21:19:38;10.07;;;6.22;;
29774;SDS011;16676;51.202;6.774;2022-09-13T21:23:40;10.70;;;5.65;;
29774;SDS011;16676;51.202;6.774;2022-09-13T21:27:43;8.68;;;5.47;;
29774;SDS011;16676;51.202;6.774;2022-09-13T21:31:47;7.53;;;4.68;;
29774;SDS011;16676;51.202;6.774;2022-09-13T21:35:49;8.30;;;4.60;;
29774;SDS011;16676;51.202;6.774;2022-09-13T21:39:51;9.48;;;5.53;;
29774;SDS011;16676;51.202;6.774;2022-09-13T21:43:53;9.63;;;4.80;;
29774;SDS011;16676;51.202;6.774;2022-09-13T21:47:56;9.65;;;3.70;;
29774;SDS011;16676;51.202;6.774;2022-09-13T21:51:58;3.85;;;2.72;;
29774;SDS011;16676;51.202;6.774;2022-09-13T21:56:01;4.82;;;2.17;;
29774;SDS011;16676;51.202;6.774;2022-09-13T22:00:04;4.18;;;2.15;;
29774;SDS011;16676;51.202;6.774;2022-09-13T22:04:10;6.80;;;1.70;;
29774;SDS011;16676;51.202;6.774;2022-09-13T22:08:15;5.40;;;1.70;;
29774;SDS011;16676;51.202;6.774;2022-09-13T22:12:17;5.80;;;1.67;;
29774;SDS011;16676;51.202;6.774;2022-09-13T22:16:21;5.32;;;1.48;;
29774;SDS011;16676;51.202;6.774;2022-09-13T22:20:26;5.40;;;1.95;;
29774;SDS011;16676;51.202;6.774;2022-09-13T22:24:28;3.72;;;1.40;;
29774;SDS011;16676;51.202;6.774;2022-09-13T22:28:31;4.85;;;1.63;;
29774;SDS011;16676;51.202;6.774;2022-09-13T22:32:34;3.80;;;1.60;;
29774;SDS011;16676;51.202;6.774;2022-09-13T22:36:37;5.30;;;1.60;;
29774;SDS011;16676;51.202;6.774;2022-09-13T22:40:40;2.28;;;1.33;;
29774;SDS011;16676;51.202;6.774;2022-09-13T22:44:42;3.80;;;1.48;;
29774;SDS011;16676;51.202;6.774;2022-09-13T22:48:44;2.92;;;1.38;;
29774;SDS011;16676;51.202;6.774;2022-09-13T22:52:47;4.07;;;1.42;;
29774;SDS011;16676;51.202;6.774;2022-09-13T22:56:49;3.35;;;1.35;;
29774;SDS011;16676;51.202;6.774;2022-09-13T23:00:51;5.13;;;1.60;;
29774;SDS011;16676;51.202;6.774;2022-09-13T23:05:03;4.75;;;1.75;;
29774;SDS011;16676;51.202;6.774;2022-09-13T23:09:06;7.38;;;1.45;;
29774;SDS011;16676;51.202;6.774;2022-09-13T23:13:09;8.73;;;1.67;;
29774;SDS011;16676;51.202;6.774;2022-09-13T23:17:11;3.88;;;1.25;;
29774;SDS011;16676;51.202;6.774;2022-09-13T23:21:15;3.88;;;1.30;;
29774;SDS011;16676;51.202;6.774;2022-09-13T23:25:19;7.60;;;1.30;;
29774;SDS011;16676;51.202;6.774;2022-09-13T23:29:21;5.13;;;1.27;;
29774;SDS011;16676;51.202;6.774;2022-09-13T23:33:23;5.43;;;1.30;;
29774;SDS011;16676;51.202;6.774;2022-09-13T23:37:25;6.35;;;1.20;;
29774;SDS011;16676;51.202;6.774;2022-09-13T23:41:28;4.05;;;1.50;;
29774;SDS011;16676;51.202;6.774;2022-09-13T23:45:32;3.15;;;1.20;;
29774;SDS011;16676;51.202;6.774;2022-09-13T23:49:34;7.10;;;1.13;;
29774;SDS011;16676;51.202;6.774;2022-09-13T23:53:36;5.97;;;1.52;;
29774;SDS011;16676;51.202;6.774;2022-09-13T23:57:39;2.40;;;1.17;;
